sensor_id;sensor_type;location;lat;lon;timestamp;pressure;altitude;pressure_sealevel;temperature;humidity
12785;BME280;6456;42.680;23.260;2022-09-03T00:00:19;94629.88;;;17.82;100.00
12785;BME280;6456;42.680;23.260;2022-09-03T00:02:56;94666.66;;;17.90;100.00
12785;BME280;6456;42.680;23.260;2022-09-03T00:05:32;94649.06;;;17.89;100.00
12785;BME280;6456;42.680;23.260;2022-09-03T00:08:05;94572.56;;;17.33;100.00
12785;BME280;6456;42.680;23.260;2022-09-03T00:10:42;94665.88;;;17.95;100.00
12785;BME280;6456;42.680;23.260;2022-09-03T00:13:16;94620.75;;;17.68;100.00
12785;BME280;6456;42.680;23.260;2022-09-03T00:15:45;94560.06;;;17.33;100.00
12785;BME280;6456;42.680;23.260;2022-09-03T00:18:15;94593.34;;;17.41;100.00
12785;BME280;6456;42.680;23.260;2022-09-03T00:20:49;94637.28;;;17.75;100.00
12785;BME280;6456;42.680;23.260;2022-09-03T00:23:20;94564.31;;;17.35;100.00
12785;BME280;6456;42.680;23.260;2022-09-03T00:25:54;94554.50;;;17.35;100.00
12785;BME280;6456;42.680;23.260;2022-09-03T00:28:33;94648.06;;;17.96;100.00
12785;BME280;6456;42.680;23.260;2022-09-03T00:31:08;94611.44;;;17.71;100.00
12785;BME280;6456;42.680;23.260;2022-09-03T00:33:39;94664.56;;;17.98;100.00
12785;BME280;6456;42.680;23.260;2022-09-03T00:36:14;94554.84;;;17.12;100.00
12785;BME280;6456;42.680;23.260;2022-09-03T00:38:42;94656.16;;;17.74;100.00
12785;BME280;6456;42.680;23.260;2022-09-03T00:41:23;94653.69;;;17.62;100.00
12785;BME280;6456;42.680;23.260;2022-09-03T00:44:10;94518.41;;;16.76;100.00
12785;BME280;6456;42.680;23.260;2022-09-03T00:46:44;94609.81;;;17.33;100.00
12785;BME280;6456;42.680;23.260;2022-09-03T00:49:27;94626.94;;;17.47;100.00
12785;BME280;6456;42.680;23.260;2022-09-03T00:52:06;94522.75;;;16.87;100.00
12785;BME280;6456;42.680;23.260;2022-09-03T00:54:42;94651.47;;;17.54;100.00
12785;BME280;6456;42.680;23.260;2022-09-03T00:57:33;94659.50;;;17.59;100.00
12785;BME280;6456;42.680;23.260;2022-09-03T01:00:10;94647.03;;;17.33;100.00
12785;BME280;6456;42.680;23.260;2022-09-03T01:02:46;94633.06;;;17.21;100.00
12785;BME280;6456;42.680;23.260;2022-09-03T01:05:26;94536.81;;;16.55;100.00
12785;BME280;6456;42.680;23.260;2022-09-03T01:08:08;94656.38;;;17.36;100.00
12785;BME280;6456;42.680;23.260;2022-09-03T01:10:45;94658.63;;;17.22;100.00
12785;BME280;6456;42.680;23.260;2022-09-03T01:13:21;94596.06;;;16.83;100.00
12785;BME280;6456;42.680;23.260;2022-09-03T01:15:59;94634.56;;;17.07;100.00
12785;BME280;6456;42.680;23.260;2022-09-03T01:18:38;94615.00;;;16.91;100.00
12785;BME280;6456;42.680;23.260;2022-09-03T01:21:28;94602.19;;;16.83;100.00
12785;BME280;6456;42.680;23.260;2022-09-03T01:24:26;94515.28;;;16.30;100.00
12785;BME280;6456;42.680;23.260;2022-09-03T01:27:08;94588.03;;;16.78;100.00
12785;BME280;6456;42.680;23.260;2022-09-03T01:29:46;94625.00;;;17.06;100.00
12785;BME280;6456;42.680;23.260;2022-09-03T01:32:26;94668.25;;;17.28;100.00
12785;BME280;6456;42.680;23.260;2022-09-03T01:35:04;94625.44;;;16.98;100.00
12785;BME280;6456;42.680;23.260;2022-09-03T01:37:46;94573.00;;;16.61;100.00
12785;BME280;6456;42.680;23.260;2022-09-03T01:40:21;94708.00;;;17.40;100.00
12785;BME280;6456;42.680;23.260;2022-09-03T01:43:05;94704.47;;;17.34;100.00
12785;BME280;6456;42.680;23.260;2022-09-03T01:45:46;94695.47;;;17.35;100.00
12785;BME280;6456;42.680;23.260;2022-09-03T01:48:40;94601.66;;;16.86;100.00
12785;BME280;6456;42.680;23.260;2022-09-03T01:51:19;94557.53;;;16.58;100.00
12785;BME280;6456;42.680;23.260;2022-09-03T01:54:11;94688.34;;;17.41;100.00
12785;BME280;6456;42.680;23.260;2022-09-03T01:56:53;94641.50;;;17.08;100.00
12785;BME280;6456;42.680;23.260;2022-09-03T01:59:30;94574.69;;;16.73;100.00
12785;BME280;6456;42.680;23.260;2022-09-03T02:02:06;94649.03;;;17.21;100.00
12785;BME280;6456;42.680;23.260;2022-09-03T02:04:37;94655.19;;;17.26;100.00
12785;BME280;6456;42.680;23.260;2022-09-03T02:07:05;94598.28;;;16.91;100.00
12785;BME280;6456;42.680;23.260;2022-09-03T02:09:32;94655.91;;;17.17;100.00
12785;BME280;6456;42.680;23.260;2022-09-03T02:12:05;94686.94;;;17.33;100.00
12785;BME280;6456;42.680;23.260;2022-09-03T02:14:34;94676.47;;;17.26;100.00
12785;BME280;6456;42.680;23.260;2022-09-03T02:17:09;94606.81;;;16.71;100.00
12785;BME280;6456;42.680;23.260;2022-09-03T02:19:37;94613.81;;;16.77;100.00
12785;BME280;6456;42.680;23.260;2022-09-03T02:22:05;94569.47;;;16.56;100.00
12785;BME280;6456;42.680;23.260;2022-09-03T02:24:32;94695.34;;;17.25;100.00
12785;BME280;6456;42.680;23.260;2022-09-03T02:26:59;94628.81;;;16.88;100.00
12785;BME280;6456;42.680;23.260;2022-09-03T02:29:29;94630.16;;;16.91;100.00
12785;BME280;6456;42.680;23.260;2022-09-03T02:31:57;94659.78;;;17.04;100.00
12785;BME280;6456;42.680;23.260;2022-09-03T02:34:25;94674.75;;;17.10;100.00
12785;BME280;6456;42.680;23.260;2022-09-03T02:36:53;94665.31;;;16.98;100.00
12785;BME280;6456;42.680;23.260;2022-09-03T02:39:20;94637.06;;;16.92;100.00
12785;BME280;6456;42.680;23.260;2022-09-03T02:41:50;94566.34;;;16.37;100.00
12785;BME280;6456;42.680;23.260;2022-09-03T02:44:23;94589.63;;;16.52;100.00
12785;BME280;6456;42.680;23.260;2022-09-03T02:46:55;94593.81;;;16.48;100.00
12785;BME280;6456;42.680;23.260;2022-09-03T02:49:24;94651.91;;;16.88;100.00
12785;BME280;6456;42.680;23.260;2022-09-03T02:51:56;94691.78;;;17.14;100.00
12785;BME280;6456;42.680;23.260;2022-09-03T02:54:27;94654.53;;;16.83;100.00
12785;BME280;6456;42.680;23.260;2022-09-03T02:56:55;94712.19;;;17.09;100.00
12785;BME280;6456;42.680;23.260;2022-09-03T02:59:22;94645.69;;;16.77;100.00
12785;BME280;6456;42.680;23.260;2022-09-03T03:01:49;94632.84;;;16.69;100.00
12785;BME280;6456;42.680;23.260;2022-09-03T03:04:17;94585.41;;;16.34;100.00
12785;BME280;6456;42.680;23.260;2022-09-03T03:06:45;94695.91;;;16.79;100.00
12785;BME280;6456;42.680;23.260;2022-09-03T03:09:18;94639.50;;;16.50;100.00
12785;BME280;6456;42.680;23.260;2022-09-03T03:11:45;94625.91;;;16.46;100.00
12785;BME280;6456;42.680;23.260;2022-09-03T03:14:14;94675.84;;;16.88;100.00
12785;BME280;6456;42.680;23.260;2022-09-03T03:16:44;94632.25;;;16.62;100.00
12785;BME280;6456;42.680;23.260;2022-09-03T03:19:11;94695.75;;;17.12;100.00
12785;BME280;6456;42.680;23.260;2022-09-03T03:21:38;94702.38;;;17.09;100.00
12785;BME280;6456;42.680;23.260;2022-09-03T03:24:07;94691.75;;;17.09;100.00
12785;BME280;6456;42.680;23.260;2022-09-03T03:26:35;94571.47;;;16.22;100.00
12785;BME280;6456;42.680;23.260;2022-09-03T03:29:03;94559.75;;;16.18;100.00
12785;BME280;6456;42.680;23.260;2022-09-03T03:31:32;94606.03;;;16.49;100.00
12785;BME280;6456;42.680;23.260;2022-09-03T03:34:01;94697.59;;;17.11;100.00
12785;BME280;6456;42.680;23.260;2022-09-03T03:36:31;94638.75;;;16.76;100.00
12785;BME280;6456;42.680;23.260;2022-09-03T03:38:59;94668.97;;;16.92;100.00
12785;BME280;6456;42.680;23.260;2022-09-03T03:41:30;94640.00;;;16.68;100.00
12785;BME280;6456;42.680;23.260;2022-09-03T03:44:00;94604.72;;;16.51;100.00
12785;BME280;6456;42.680;23.260;2022-09-03T03:46:33;94683.38;;;16.96;100.00
12785;BME280;6456;42.680;23.260;2022-09-03T03:49:04;94666.34;;;16.97;100.00
12785;BME280;6456;42.680;23.260;2022-09-03T03:51:37;94606.44;;;16.57;100.00
12785;BME280;6456;42.680;23.260;2022-09-03T03:54:05;94700.31;;;17.16;100.00
12785;BME280;6456;42.680;23.260;2022-09-03T03:56:37;94585.47;;;16.39;100.00
12785;BME280;6456;42.680;23.260;2022-09-03T03:59:10;94591.16;;;16.26;100.00
12785;BME280;6456;42.680;23.260;2022-09-03T04:01:38;94599.69;;;16.28;100.00
12785;BME280;6456;42.680;23.260;2022-09-03T04:04:06;94681.41;;;16.64;100.00
12785;BME280;6456;42.680;23.260;2022-09-03T04:06:33;94695.38;;;16.77;100.00
12785;BME280;6456;42.680;23.260;2022-09-03T04:09:00;94591.16;;;16.26;100.00
12785;BME280;6456;42.680;23.260;2022-09-03T04:11:27;94650.28;;;16.60;100.00
12785;BME280;6456;42.680;23.260;2022-09-03T04:13:55;94652.25;;;16.70;100.00
12785;BME280;6456;42.680;23.260;2022-09-03T04:16:23;94618.16;;;16.61;100.00
12785;BME280;6456;42.680;23.260;2022-09-03T04:18:52;94668.97;;;16.92;100.00
12785;BME280;6456;42.680;23.260;2022-09-03T04:21:20;94660.81;;;16.77;100.00
12785;BME280;6456;42.680;23.260;2022-09-03T04:23:49;94697.38;;;17.13;100.00
12785;BME280;6456;42.680;23.260;2022-09-03T04:26:17;94671.00;;;16.85;100.00
12785;BME280;6456;42.680;23.260;2022-09-03T04:28:45;94640.31;;;16.72;100.00
12785;BME280;6456;42.680;23.260;2022-09-03T04:31:15;94625.63;;;16.64;100.00
12785;BME280;6456;42.680;23.260;2022-09-03T04:33:43;94649.91;;;16.73;100.00
12785;BME280;6456;42.680;23.260;2022-09-03T04:36:12;94641.06;;;16.67;100.00
12785;BME280;6456;42.680;23.260;2022-09-03T04:38:41;94598.41;;;16.31;100.00
12785;BME280;6456;42.680;23.260;2022-09-03T04:41:12;94720.69;;;17.06;100.00
12785;BME280;6456;42.680;23.260;2022-09-03T04:43:47;94645.47;;;16.57;100.00
12785;BME280;6456;42.680;23.260;2022-09-03T04:46:29;94749.41;;;17.09;100.00
12785;BME280;6456;42.680;23.260;2022-09-03T04:48:57;94630.97;;;16.26;100.00
12785;BME280;6456;42.680;23.260;2022-09-03T04:51:26;94627.09;;;16.12;100.00
12785;BME280;6456;42.680;23.260;2022-09-03T04:53:54;94753.47;;;16.90;100.00
12785;BME280;6456;42.680;23.260;2022-09-03T04:56:23;94767.19;;;16.82;100.00
12785;BME280;6456;42.680;23.260;2022-09-03T04:58:53;94754.38;;;16.79;100.00
12785;BME280;6456;42.680;23.260;2022-09-03T05:01:23;94715.13;;;16.42;100.00
12785;BME280;6456;42.680;23.260;2022-09-03T05:03:51;94654.00;;;15.99;100.00
12785;BME280;6456;42.680;23.260;2022-09-03T05:06:19;94735.13;;;16.50;100.00
12785;BME280;6456;42.680;23.260;2022-09-03T05:08:47;94774.47;;;16.70;100.00
12785;BME280;6456;42.680;23.260;2022-09-03T05:11:14;94684.34;;;16.25;100.00
12785;BME280;6456;42.680;23.260;2022-09-03T05:13:41;94765.88;;;16.84;100.00
12785;BME280;6456;42.680;23.260;2022-09-03T05:16:09;94669.91;;;16.16;100.00
12785;BME280;6456;42.680;23.260;2022-09-03T05:18:37;94706.94;;;16.49;100.00
12785;BME280;6456;42.680;23.260;2022-09-03T05:21:10;94693.25;;;16.35;100.00
12785;BME280;6456;42.680;23.260;2022-09-03T05:23:39;94756.94;;;16.90;100.00
12785;BME280;6456;42.680;23.260;2022-09-03T05:26:08;94756.59;;;16.87;100.00
12785;BME280;6456;42.680;23.260;2022-09-03T05:28:37;94764.69;;;16.97;100.00
12785;BME280;6456;42.680;23.260;2022-09-03T05:31:07;94742.44;;;16.81;100.00
12785;BME280;6456;42.680;23.260;2022-09-03T05:33:34;94772.75;;;17.02;100.00
12785;BME280;6456;42.680;23.260;2022-09-03T05:36:02;94771.75;;;17.08;100.00
12785;BME280;6456;42.680;23.260;2022-09-03T05:38:31;94723.84;;;16.81;100.00
12785;BME280;6456;42.680;23.260;2022-09-03T05:40:59;94743.69;;;16.95;100.00
12785;BME280;6456;42.680;23.260;2022-09-03T05:43:26;94714.47;;;16.74;100.00
12785;BME280;6456;42.680;23.260;2022-09-03T05:45:56;94706.56;;;16.57;100.00
12785;BME280;6456;42.680;23.260;2022-09-03T05:48:24;94673.16;;;16.44;100.00
12785;BME280;6456;42.680;23.260;2022-09-03T05:50:58;94780.88;;;17.17;100.00
12785;BME280;6456;42.680;23.260;2022-09-03T05:53:26;94761.94;;;17.08;100.00
12785;BME280;6456;42.680;23.260;2022-09-03T05:55:57;94779.66;;;17.24;100.00
12785;BME280;6456;42.680;23.260;2022-09-03T05:58:24;94784.47;;;17.27;100.00
12785;BME280;6456;42.680;23.260;2022-09-03T06:00:55;94734.66;;;16.96;100.00
12785;BME280;6456;42.680;23.260;2022-09-03T06:03:22;94706.72;;;16.94;100.00
12785;BME280;6456;42.680;23.260;2022-09-03T06:05:49;94767.00;;;17.37;100.00
12785;BME280;6456;42.680;23.260;2022-09-03T06:08:17;94798.00;;;17.48;100.00
12785;BME280;6456;42.680;23.260;2022-09-03T06:10:43;94795.41;;;17.53;100.00
12785;BME280;6456;42.680;23.260;2022-09-03T06:13:11;94718.09;;;17.11;100.00
12785;BME280;6456;42.680;23.260;2022-09-03T06:15:39;94789.69;;;17.44;100.00
12785;BME280;6456;42.680;23.260;2022-09-03T06:18:06;94782.72;;;17.60;100.00
12785;BME280;6456;42.680;23.260;2022-09-03T06:20:32;94788.44;;;17.73;100.00
12785;BME280;6456;42.680;23.260;2022-09-03T06:22:59;94785.81;;;17.78;100.00
12785;BME280;6456;42.680;23.260;2022-09-03T06:25:26;94803.63;;;17.78;100.00
12785;BME280;6456;42.680;23.260;2022-09-03T06:27:53;94796.75;;;17.82;100.00
12785;BME280;6456;42.680;23.260;2022-09-03T06:30:21;94798.38;;;17.83;100.00
12785;BME280;6456;42.680;23.260;2022-09-03T06:32:50;94802.44;;;17.90;100.00
12785;BME280;6456;42.680;23.260;2022-09-03T06:35:18;94798.22;;;18.00;100.00
12785;BME280;6456;42.680;23.260;2022-09-03T06:37:45;94796.34;;;17.95;100.00
12785;BME280;6456;42.680;23.260;2022-09-03T06:40:12;94808.38;;;18.03;100.00
12785;BME280;6456;42.680;23.260;2022-09-03T06:42:54;94790.19;;;17.94;100.00
12785;BME280;6456;42.680;23.260;2022-09-03T06:45:24;94798.16;;;17.89;100.00
12785;BME280;6456;42.680;23.260;2022-09-03T06:47:52;94801.72;;;18.00;100.00
12785;BME280;6456;42.680;23.260;2022-09-03T06:50:20;94731.69;;;17.68;100.00
12785;BME280;6456;42.680;23.260;2022-09-03T06:52:50;94685.72;;;17.19;100.00
12785;BME280;6456;42.680;23.260;2022-09-03T06:55:18;94710.19;;;17.48;100.00
12785;BME280;6456;42.680;23.260;2022-09-03T06:57:45;94701.88;;;17.39;100.00
12785;BME280;6456;42.680;23.260;2022-09-03T07:00:13;94808.97;;;18.10;100.00
12785;BME280;6456;42.680;23.260;2022-09-03T07:02:41;94706.91;;;17.36;100.00
12785;BME280;6456;42.680;23.260;2022-09-03T07:05:09;94820.16;;;18.12;100.00
12785;BME280;6456;42.680;23.260;2022-09-03T07:07:36;94817.50;;;18.12;100.00
12785;BME280;6456;42.680;23.260;2022-09-03T07:10:03;94824.44;;;18.13;100.00
12785;BME280;6456;42.680;23.260;2022-09-03T07:12:31;94827.72;;;18.25;100.00
12785;BME280;6456;42.680;23.260;2022-09-03T07:15:02;94819.41;;;18.16;100.00
12785;BME280;6456;42.680;23.260;2022-09-03T07:17:30;94787.63;;;18.05;100.00
12785;BME280;6456;42.680;23.260;2022-09-03T07:19:58;94828.31;;;18.32;100.00
12785;BME280;6456;42.680;23.260;2022-09-03T07:22:25;94830.56;;;18.45;100.00
12785;BME280;6456;42.680;23.260;2022-09-03T07:24:51;94837.03;;;18.54;100.00
12785;BME280;6456;42.680;23.260;2022-09-03T07:27:18;94826.91;;;18.51;100.00
12785;BME280;6456;42.680;23.260;2022-09-03T07:29:45;94738.09;;;18.04;100.00
12785;BME280;6456;42.680;23.260;2022-09-03T07:32:12;94761.41;;;18.23;100.00
12785;BME280;6456;42.680;23.260;2022-09-03T07:34:39;94838.78;;;18.75;100.00
12785;BME280;6456;42.680;23.260;2022-09-03T07:37:07;94836.69;;;18.82;100.00
12785;BME280;6456;42.680;23.260;2022-09-03T07:39:35;94772.44;;;18.42;100.00
12785;BME280;6456;42.680;23.260;2022-09-03T07:42:02;94804.28;;;18.53;100.00
12785;BME280;6456;42.680;23.260;2022-09-03T07:44:29;94807.22;;;18.57;100.00
12785;BME280;6456;42.680;23.260;2022-09-03T07:46:56;94833.72;;;18.74;100.00
12785;BME280;6456;42.680;23.260;2022-09-03T07:49:23;94840.50;;;18.96;100.00
12785;BME280;6456;42.680;23.260;2022-09-03T07:51:50;94838.38;;;18.98;100.00
12785;BME280;6456;42.680;23.260;2022-09-03T07:54:20;94853.91;;;19.11;100.00
12785;BME280;6456;42.680;23.260;2022-09-03T07:56:48;94768.09;;;18.68;100.00
12785;BME280;6456;42.680;23.260;2022-09-03T07:59:15;94750.72;;;18.55;100.00
12785;BME280;6456;42.680;23.260;2022-09-03T08:01:42;94839.88;;;19.31;100.00
12785;BME280;6456;42.680;23.260;2022-09-03T08:04:09;94809.13;;;19.13;100.00
12785;BME280;6456;42.680;23.260;2022-09-03T08:06:37;94842.06;;;19.39;100.00
12785;BME280;6456;42.680;23.260;2022-09-03T08:09:06;94845.84;;;19.53;100.00
12785;BME280;6456;42.680;23.260;2022-09-03T08:11:36;94837.53;;;19.45;100.00
12785;BME280;6456;42.680;23.260;2022-09-03T08:14:05;94847.72;;;19.53;100.00
12785;BME280;6456;42.680;23.260;2022-09-03T08:16:33;94858.13;;;19.54;100.00
12785;BME280;6456;42.680;23.260;2022-09-03T08:19:00;94861.38;;;19.66;100.00
12785;BME280;6456;42.680;23.260;2022-09-03T08:21:27;94778.75;;;19.25;100.00
12785;BME280;6456;42.680;23.260;2022-09-03T08:23:55;94833.59;;;19.57;100.00
12785;BME280;6456;42.680;23.260;2022-09-03T08:26:28;94833.91;;;19.71;99.75
12785;BME280;6456;42.680;23.260;2022-09-03T08:28:58;94784.69;;;19.47;99.11
12785;BME280;6456;42.680;23.260;2022-09-03T08:31:26;94775.09;;;19.41;99.08
12785;BME280;6456;42.680;23.260;2022-09-03T08:33:55;94851.56;;;19.97;99.76
12785;BME280;6456;42.680;23.260;2022-09-03T08:36:24;94847.31;;;20.06;100.00
12785;BME280;6456;42.680;23.260;2022-09-03T08:38:52;94782.88;;;19.57;100.00
12785;BME280;6456;42.680;23.260;2022-09-03T08:41:32;94831.25;;;19.81;99.82
12785;BME280;6456;42.680;23.260;2022-09-03T08:44:21;94849.41;;;19.99;97.96
12785;BME280;6456;42.680;23.260;2022-09-03T08:46:53;94784.75;;;19.72;97.57
12785;BME280;6456;42.680;23.260;2022-09-03T08:49:24;94848.09;;;20.22;98.44
12785;BME280;6456;42.680;23.260;2022-09-03T08:51:54;94792.78;;;19.77;99.21
12785;BME280;6456;42.680;23.260;2022-09-03T08:54:26;94851.31;;;19.94;98.69
12785;BME280;6456;42.680;23.260;2022-09-03T08:56:59;94848.06;;;19.92;99.34
12785;BME280;6456;42.680;23.260;2022-09-03T08:59:29;94799.97;;;19.56;100.00
12785;BME280;6456;42.680;23.260;2022-09-03T09:02:07;94828.81;;;19.79;98.72
12785;BME280;6456;42.680;23.260;2022-09-03T09:04:52;94854.22;;;19.92;99.23
12785;BME280;6456;42.680;23.260;2022-09-03T09:07:26;94850.50;;;20.03;99.27
12785;BME280;6456;42.680;23.260;2022-09-03T09:10:00;94851.06;;;20.15;98.28
12785;BME280;6456;42.680;23.260;2022-09-03T09:12:35;94843.88;;;20.26;99.03
12785;BME280;6456;42.680;23.260;2022-09-03T09:15:09;94855.91;;;20.43;97.94
12785;BME280;6456;42.680;23.260;2022-09-03T09:17:50;94841.47;;;20.44;99.31
12785;BME280;6456;42.680;23.260;2022-09-03T09:20:25;94846.28;;;20.58;99.16
12785;BME280;6456;42.680;23.260;2022-09-03T09:23:00;94838.78;;;20.55;96.03
12785;BME280;6456;42.680;23.260;2022-09-03T09:25:28;94850.53;;;20.74;98.38
12785;BME280;6456;42.680;23.260;2022-09-03T09:27:59;94786.44;;;20.38;94.63
12785;BME280;6456;42.680;23.260;2022-09-03T09:30:30;94762.63;;;20.32;93.68
12785;BME280;6456;42.680;23.260;2022-09-03T09:32:57;94851.56;;;21.08;91.21
12785;BME280;6456;42.680;23.260;2022-09-03T09:35:25;94849.94;;;20.97;91.68
12785;BME280;6456;42.680;23.260;2022-09-03T09:37:53;94857.47;;;20.80;93.60
12785;BME280;6456;42.680;23.260;2022-09-03T09:40:28;94839.88;;;20.64;94.36
12785;BME280;6456;42.680;23.260;2022-09-03T09:43:05;94853.75;;;20.71;95.46
12785;BME280;6456;42.680;23.260;2022-09-03T09:45:34;94839.84;;;20.69;95.42
12785;BME280;6456;42.680;23.260;2022-09-03T09:48:02;94854.00;;;20.74;93.80
12785;BME280;6456;42.680;23.260;2022-09-03T09:50:35;94815.00;;;20.53;95.04
12785;BME280;6456;42.680;23.260;2022-09-03T09:53:03;94855.34;;;20.77;94.32
12785;BME280;6456;42.680;23.260;2022-09-03T09:55:48;94858.06;;;20.62;94.11
12785;BME280;6456;42.680;23.260;2022-09-03T09:58:18;94859.63;;;20.48;94.78
12785;BME280;6456;42.680;23.260;2022-09-03T10:00:59;94860.72;;;20.52;96.24
12785;BME280;6456;42.680;23.260;2022-09-03T10:03:29;94866.06;;;20.57;95.99
12785;BME280;6456;42.680;23.260;2022-09-03T10:06:01;94857.25;;;20.61;96.23
12785;BME280;6456;42.680;23.260;2022-09-03T10:08:50;94782.66;;;20.14;96.93
12785;BME280;6456;42.680;23.260;2022-09-03T10:11:19;94854.28;;;20.53;98.02
12785;BME280;6456;42.680;23.260;2022-09-03T10:14:00;94861.78;;;20.51;98.31
12785;BME280;6456;42.680;23.260;2022-09-03T10:16:34;94850.56;;;20.64;99.11
12785;BME280;6456;42.680;23.260;2022-09-03T10:19:08;94850.25;;;20.75;95.48
12785;BME280;6456;42.680;23.260;2022-09-03T10:21:43;94843.28;;;20.79;93.17
12785;BME280;6456;42.680;23.260;2022-09-03T10:24:25;94828.06;;;20.80;94.32
12785;BME280;6456;42.680;23.260;2022-09-03T10:26:54;94845.69;;;20.96;92.47
12785;BME280;6456;42.680;23.260;2022-09-03T10:29:23;94827.50;;;20.88;92.90
12785;BME280;6456;42.680;23.260;2022-09-03T10:32:06;94846.75;;;20.95;95.35
12785;BME280;6456;42.680;23.260;2022-09-03T10:34:44;94843.53;;;21.08;91.26
12785;BME280;6456;42.680;23.260;2022-09-03T10:37:20;94857.44;;;21.15;90.71
12785;BME280;6456;42.680;23.260;2022-09-03T10:40:05;94832.31;;;20.96;91.63
12785;BME280;6456;42.680;23.260;2022-09-03T10:42:42;94797.31;;;20.67;94.11
12785;BME280;6456;42.680;23.260;2022-09-03T10:45:29;94865.44;;;21.20;90.77
12785;BME280;6456;42.680;23.260;2022-09-03T10:48:14;94857.44;;;21.15;90.13
12785;BME280;6456;42.680;23.260;2022-09-03T10:50:47;94855.03;;;21.14;90.63
12785;BME280;6456;42.680;23.260;2022-09-03T10:53:27;94850.47;;;21.19;89.95
12785;BME280;6456;42.680;23.260;2022-09-03T10:55:59;94848.28;;;21.36;93.33
12785;BME280;6456;42.680;23.260;2022-09-03T10:58:38;94855.28;;;21.17;91.24
12785;BME280;6456;42.680;23.260;2022-09-03T11:01:17;94860.13;;;21.10;92.76
12785;BME280;6456;42.680;23.260;2022-09-03T11:03:53;94833.38;;;20.95;94.40
12785;BME280;6456;42.680;23.260;2022-09-03T11:06:27;94849.38;;;21.25;90.47
12785;BME280;6456;42.680;23.260;2022-09-03T11:08:57;94809.00;;;21.17;90.55
12785;BME280;6456;42.680;23.260;2022-09-03T11:11:30;94822.59;;;21.25;90.17
12785;BME280;6456;42.680;23.260;2022-09-03T11:14:02;94788.97;;;20.99;90.75
12785;BME280;6456;42.680;23.260;2022-09-03T11:16:37;94850.31;;;21.54;93.07
12785;BME280;6456;42.680;23.260;2022-09-03T11:19:08;94801.97;;;21.31;89.38
12785;BME280;6456;42.680;23.260;2022-09-03T11:21:39;94811.84;;;21.40;87.44
12785;BME280;6456;42.680;23.260;2022-09-03T11:24:11;94842.78;;;21.66;89.23
12785;BME280;6456;42.680;23.260;2022-09-03T11:26:40;94801.13;;;21.40;87.70
12785;BME280;6456;42.680;23.260;2022-09-03T11:29:11;94780.84;;;21.34;89.82
12785;BME280;6456;42.680;23.260;2022-09-03T11:31:53;94847.50;;;21.80;86.96
12785;BME280;6456;42.680;23.260;2022-09-03T11:34:30;94845.94;;;21.79;91.59
12785;BME280;6456;42.680;23.260;2022-09-03T11:37:17;94826.91;;;21.75;87.99
12785;BME280;6456;42.680;23.260;2022-09-03T11:39:51;94842.66;;;21.97;86.18
12785;BME280;6456;42.680;23.260;2022-09-03T11:42:29;94836.28;;;21.78;85.93
12785;BME280;6456;42.680;23.260;2022-09-03T11:45:13;94761.06;;;21.20;86.84
12785;BME280;6456;42.680;23.260;2022-09-03T11:47:47;94837.97;;;21.63;88.91
12785;BME280;6456;42.680;23.260;2022-09-03T11:50:20;94838.81;;;21.59;89.15
12785;BME280;6456;42.680;23.260;2022-09-03T11:52:49;94812.88;;;21.49;87.56
12785;BME280;6456;42.680;23.260;2022-09-03T11:55:25;94848.63;;;21.73;85.18
12785;BME280;6456;42.680;23.260;2022-09-03T11:57:54;94852.63;;;21.81;84.68
12785;BME280;6456;42.680;23.260;2022-09-03T12:00:23;94848.59;;;21.84;86.76
12785;BME280;6456;42.680;23.260;2022-09-03T12:02:54;94817.31;;;21.74;87.00
12785;BME280;6456;42.680;23.260;2022-09-03T12:05:30;94819.13;;;21.89;84.52
12785;BME280;6456;42.680;23.260;2022-09-03T12:10:53;94832.81;;;22.21;84.36
12785;BME280;6456;42.680;23.260;2022-09-03T12:13:35;94779.97;;;21.93;83.48
12785;BME280;6456;42.680;23.260;2022-09-03T12:16:29;94828.66;;;22.39;83.87
12785;BME280;6456;42.680;23.260;2022-09-03T12:19:06;94814.66;;;22.47;80.87
12785;BME280;6456;42.680;23.260;2022-09-03T12:21:39;94813.59;;;22.43;83.87
12785;BME280;6456;42.680;23.260;2022-09-03T12:24:10;94814.50;;;22.33;85.07
12785;BME280;6456;42.680;23.260;2022-09-03T12:26:39;94817.38;;;22.42;82.78
12785;BME280;6456;42.680;23.260;2022-09-03T12:29:19;94835.06;;;22.43;82.27
12785;BME280;6456;42.680;23.260;2022-09-03T12:31:48;94818.31;;;22.27;82.80
12785;BME280;6456;42.680;23.260;2022-09-03T12:34:17;94821.47;;;22.34;82.84
12785;BME280;6456;42.680;23.260;2022-09-03T12:36:47;94819.38;;;22.26;84.61
12785;BME280;6456;42.680;23.260;2022-09-03T12:39:16;94781.97;;;22.11;82.28
12785;BME280;6456;42.680;23.260;2022-09-03T12:41:57;94821.91;;;22.46;84.50
12785;BME280;6456;42.680;23.260;2022-09-03T12:44:27;94823.00;;;22.40;81.24
12785;BME280;6456;42.680;23.260;2022-09-03T12:47:08;94821.44;;;22.39;83.84
12785;BME280;6456;42.680;23.260;2022-09-03T12:49:37;94813.47;;;22.29;84.05
12785;BME280;6456;42.680;23.260;2022-09-03T12:52:12;94810.50;;;22.30;84.05
12785;BME280;6456;42.680;23.260;2022-09-03T12:54:47;94815.06;;;22.30;83.27
12785;BME280;6456;42.680;23.260;2022-09-03T12:57:19;94748.59;;;21.98;83.53
12785;BME280;6456;42.680;23.260;2022-09-03T12:59:50;94797.78;;;22.46;83.93
12785;BME280;6456;42.680;23.260;2022-09-03T13:02:22;94803.25;;;22.65;82.92
12785;BME280;6456;42.680;23.260;2022-09-03T13:04:52;94788.03;;;22.55;80.14
12785;BME280;6456;42.680;23.260;2022-09-03T13:07:24;94700.81;;;22.05;79.74
12785;BME280;6456;42.680;23.260;2022-09-03T13:10:00;94730.41;;;22.24;77.59
12785;BME280;6456;42.680;23.260;2022-09-03T13:12:32;94797.91;;;22.60;76.27
12785;BME280;6456;42.680;23.260;2022-09-03T13:15:05;94725.16;;;22.14;77.25
12785;BME280;6456;42.680;23.260;2022-09-03T13:17:52;94771.66;;;22.57;76.49
12785;BME280;6456;42.680;23.260;2022-09-03T13:20:34;94798.06;;;22.73;75.85